createdAt,value
2018-05-18T00:00:14.767Z,12.00
2018-05-18T00:01:14.753Z,12.00
2018-05-18T00:02:14.739Z,12.00
2018-05-18T00:03:14.770Z,12.00
2018-05-18T00:04:14.702Z,12.00
2018-05-18T00:05:14.686Z,12.00
2018-05-18T00:06:14.668Z,12.00
2018-05-18T00:07:14.659Z,12.00
2018-05-18T00:08:14.633Z,12.00
2018-05-18T00:09:14.617Z,12.00
2018-05-18T00:10:14.601Z,12.00
2018-05-18T00:11:14.584Z,12.00
2018-05-18T00:12:14.570Z,12.00
2018-05-18T00:13:14.558Z,12.00
2018-05-18T00:14:14.535Z,12.00
2018-05-18T00:15:14.516Z,12.00
2018-05-18T00:16:14.505Z,12.00
2018-05-18T00:17:14.483Z,12.00
2018-05-18T00:18:14.465Z,12.00
2018-05-18T00:19:14.551Z,12.00
2018-05-18T00:20:14.434Z,12.00
2018-05-18T00:21:14.468Z,8.00
2018-05-18T00:22:14.397Z,12.00
2018-05-18T00:23:14.381Z,12.00
2018-05-18T00:24:14.367Z,12.00
2018-05-18T00:25:14.347Z,12.00
2018-05-18T00:26:14.332Z,12.00
2018-05-18T00:27:14.315Z,12.00
2018-05-18T00:28:14.297Z,8.00
2018-05-18T00:29:14.280Z,12.00
2018-05-18T00:30:14.265Z,12.00
2018-05-18T00:31:14.247Z,12.00
2018-05-18T00:32:14.231Z,12.00
2018-05-18T00:33:14.291Z,12.00
2018-05-18T00:34:14.198Z,12.00
2018-05-18T00:35:14.183Z,12.00
2018-05-18T00:36:14.165Z,12.00
2018-05-18T00:37:14.145Z,12.00
2018-05-18T00:38:14.231Z,12.00
2018-05-18T00:39:14.111Z,12.00
2018-05-18T00:40:14.098Z,12.00
2018-05-18T00:41:14.081Z,12.00
2018-05-18T00:42:14.067Z,12.00
2018-05-18T00:43:14.047Z,12.00
2018-05-18T00:44:14.028Z,12.00
2018-05-18T00:45:14.012Z,12.00
2018-05-18T00:46:14.014Z,12.00
2018-05-18T00:47:13.978Z,12.00
2018-05-18T00:48:13.961Z,12.00
2018-05-18T00:49:13.945Z,12.00
2018-05-18T00:50:13.929Z,12.00
2018-05-18T00:51:13.936Z,12.00
2018-05-18T00:52:13.902Z,12.00
2018-05-18T00:53:13.877Z,12.00
2018-05-18T00:54:13.861Z,12.00
2018-05-18T00:55:13.856Z,12.00
2018-05-18T00:56:13.828Z,12.00
2018-05-18T00:57:13.810Z,12.00
2018-05-18T00:58:13.801Z,12.00
2018-05-18T00:59:13.774Z,8.00
2018-05-18T01:00:13.761Z,12.00
2018-05-18T01:01:13.742Z,12.00
2018-05-18T01:02:13.725Z,12.00
2018-05-18T01:03:13.708Z,12.00
2018-05-18T01:04:13.691Z,12.00
2018-05-18T01:05:13.675Z,12.00
2018-05-18T01:06:13.658Z,12.00
2018-05-18T01:07:13.649Z,12.00
2018-05-18T01:08:13.623Z,12.00
2018-05-18T01:09:13.610Z,8.00
2018-05-18T01:10:13.590Z,12.00
2018-05-18T01:11:13.574Z,12.00
2018-05-18T01:12:13.556Z,8.00
2018-05-18T01:13:13.540Z,12.00
2018-05-18T01:14:13.523Z,12.00
2018-05-18T01:15:13.505Z,12.00
2018-05-18T01:16:13.488Z,12.00
2018-05-18T01:17:13.471Z,12.00
2018-05-18T01:18:13.456Z,12.00
2018-05-18T01:19:13.441Z,12.00
2018-05-18T01:20:13.421Z,12.00
2018-05-18T01:21:13.456Z,12.00
2018-05-18T01:22:13.388Z,12.00
2018-05-18T01:23:13.380Z,12.00
2018-05-18T01:24:13.358Z,12.00
2018-05-18T01:25:13.336Z,12.00
2018-05-18T01:26:13.319Z,12.00
2018-05-18T01:27:13.301Z,12.00
2018-05-18T01:28:13.283Z,8.00
2018-05-18T01:29:13.267Z,12.00
2018-05-18T01:30:13.254Z,12.00
2018-05-18T01:31:13.233Z,12.00
2018-05-18T01:32:13.216Z,12.00
2018-05-18T01:33:13.208Z,12.00
2018-05-18T01:34:13.181Z,8.00
2018-05-18T01:35:13.163Z,12.00
2018-05-18T01:36:13.148Z,12.00
2018-05-18T01:37:13.131Z,12.00
2018-05-18T01:38:13.115Z,8.00
2018-05-18T01:39:13.098Z,12.00
2018-05-18T01:40:13.075Z,12.00
2018-05-18T01:41:13.103Z,12.00
2018-05-18T01:42:13.042Z,12.00
2018-05-18T01:43:13.031Z,12.00
2018-05-18T01:44:13.007Z,12.00
2018-05-18T01:45:12.991Z,12.00
2018-05-18T01:46:12.973Z,12.00
2018-05-18T01:47:12.956Z,12.00
2018-05-18T01:48:12.937Z,12.00
2018-05-18T01:49:12.920Z,8.00
2018-05-18T01:50:12.904Z,12.00
2018-05-18T01:51:12.885Z,12.00
2018-05-18T01:52:12.870Z,12.00
2018-05-18T01:53:12.858Z,12.00
2018-05-18T01:54:12.835Z,12.00
2018-05-18T01:55:12.817Z,12.00
2018-05-18T01:56:12.801Z,12.00
2018-05-18T01:57:12.784Z,8.00
2018-05-18T01:58:12.768Z,12.00
2018-05-18T01:59:12.747Z,12.00
2018-05-18T02:00:12.730Z,12.00
2018-05-18T02:01:12.712Z,12.00
2018-05-18T02:02:12.696Z,12.00
2018-05-18T02:03:12.677Z,12.00
2018-05-18T02:04:12.660Z,8.00
2018-05-18T02:05:12.650Z,12.00
2018-05-18T02:06:12.636Z,8.00
2018-05-18T02:07:12.609Z,12.00
2018-05-18T02:08:12.592Z,12.00
2018-05-18T02:09:12.573Z,12.00
2018-05-18T02:10:12.556Z,12.00
2018-05-18T02:11:12.538Z,12.00
2018-05-18T02:12:12.519Z,12.00
2018-05-18T02:13:12.503Z,8.00
2018-05-18T02:14:12.487Z,12.00
2018-05-18T02:15:12.477Z,12.00
2018-05-18T02:16:12.454Z,12.00
2018-05-18T02:17:12.436Z,12.00
2018-05-18T02:18:12.417Z,8.00
2018-05-18T02:19:12.408Z,12.00
2018-05-18T02:20:12.381Z,12.00
2018-05-18T02:21:12.371Z,12.00
2018-05-18T02:22:12.348Z,8.00
2018-05-18T02:23:12.330Z,8.00
2018-05-18T02:24:12.316Z,8.00
2018-05-18T02:25:12.296Z,8.00
2018-05-18T02:26:12.282Z,12.00
2018-05-18T02:27:12.262Z,8.00
2018-05-18T02:28:12.242Z,12.00
2018-05-18T02:29:12.229Z,8.00
2018-05-18T02:30:12.214Z,8.00
2018-05-18T02:31:12.189Z,8.00
2018-05-18T02:32:12.175Z,8.00
2018-05-18T02:33:12.155Z,8.00
2018-05-18T02:34:12.138Z,8.00
2018-05-18T02:35:12.120Z,8.00
2018-05-18T02:36:12.122Z,8.00
2018-05-18T02:37:12.096Z,8.00
2018-05-18T02:38:12.069Z,8.00
2018-05-18T02:39:12.051Z,8.00
2018-05-18T02:40:12.033Z,8.00
2018-05-18T02:41:12.016Z,8.00
2018-05-18T02:42:11.999Z,8.00
2018-05-18T02:43:11.980Z,8.00
2018-05-18T02:44:11.963Z,8.00
2018-05-18T02:45:11.948Z,8.00
2018-05-18T02:46:11.930Z,8.00
2018-05-18T02:47:11.912Z,8.00
2018-05-18T02:48:11.893Z,8.00
2018-05-18T02:49:11.876Z,8.00
2018-05-18T02:50:11.857Z,8.00
2018-05-18T02:51:11.840Z,8.00
2018-05-18T02:52:11.823Z,8.00
2018-05-18T02:53:11.806Z,8.00
2018-05-18T02:54:11.790Z,8.00
2018-05-18T02:55:11.777Z,8.00
2018-05-18T02:56:11.855Z,8.00
2018-05-18T02:57:11.736Z,12.00
2018-05-18T02:58:11.718Z,12.00
2018-05-18T02:59:11.699Z,12.00
2018-05-18T03:00:11.684Z,12.00
2018-05-18T03:01:11.664Z,12.00
2018-05-18T03:02:11.647Z,8.00
2018-05-18T03:03:11.629Z,12.00
2018-05-18T03:04:11.612Z,12.00
2018-05-18T03:05:11.593Z,12.00
2018-05-18T03:06:11.577Z,16.00
2018-05-18T03:07:11.568Z,12.00
2018-05-18T03:08:11.543Z,12.00
2018-05-18T03:09:11.522Z,16.00
2018-05-18T03:10:11.534Z,16.00
2018-05-18T03:11:11.500Z,16.00
2018-05-18T03:12:11.473Z,16.00
2018-05-18T03:13:11.455Z,16.00
2018-05-18T03:14:11.437Z,20.00
2018-05-18T03:15:11.418Z,24.00
2018-05-18T03:16:11.399Z,24.00
2018-05-18T03:17:11.382Z,28.00
2018-05-18T03:18:11.365Z,28.00
2018-05-18T03:19:11.346Z,28.00
2018-05-18T03:20:11.330Z,32.00
2018-05-18T03:21:11.312Z,36.00
2018-05-18T03:22:11.294Z,28.00
2018-05-18T03:23:11.279Z,32.00
2018-05-18T03:24:11.257Z,32.00
2018-05-18T03:25:11.240Z,40.00
2018-05-18T03:26:11.273Z,44.00
2018-05-18T03:27:11.204Z,52.00
2018-05-18T03:28:11.186Z,60.00
2018-05-18T03:29:11.169Z,68.00
2018-05-18T03:30:11.155Z,72.00
2018-05-18T03:31:11.185Z,84.00
2018-05-18T03:32:11.114Z,92.00
2018-05-18T03:33:11.097Z,96.00
2018-05-18T03:34:11.084Z,104.00
2018-05-18T03:35:11.062Z,108.00
2018-05-18T03:36:11.046Z,116.00
2018-05-18T03:37:11.027Z,124.00
2018-05-18T03:38:11.007Z,136.00
2018-05-18T03:39:10.991Z,144.00
2018-05-18T03:40:10.974Z,152.00
2018-05-18T03:41:10.957Z,164.00
2018-05-18T03:42:10.946Z,180.00
2018-05-18T03:43:10.918Z,196.00
2018-05-18T03:44:10.909Z,204.00
2018-05-18T03:45:10.883Z,216.00
2018-05-18T03:46:10.865Z,224.00
2018-05-18T03:47:10.848Z,236.00
2018-05-18T03:48:10.831Z,244.00
2018-05-18T03:49:10.822Z,256.00
2018-05-18T03:50:10.793Z,268.00
2018-05-18T03:51:10.778Z,284.00
2018-05-18T03:52:10.759Z,304.00
2018-05-18T03:53:10.742Z,328.00
2018-05-18T03:54:10.730Z,344.00
2018-05-18T03:55:10.703Z,364.00
2018-05-18T03:56:10.688Z,380.00
2018-05-18T03:57:10.669Z,392.00
2018-05-18T03:58:10.658Z,408.00
2018-05-18T03:59:10.649Z,428.00
2018-05-18T04:00:10.617Z,460.00
2018-05-18T04:01:10.599Z,480.00
2018-05-18T04:02:10.580Z,488.00
2018-05-18T04:03:10.566Z,484.00
2018-05-18T04:04:10.545Z,504.00
2018-05-18T04:05:10.529Z,508.00
2018-05-18T04:06:10.515Z,512.00
2018-05-18T04:07:10.491Z,528.00
2018-05-18T04:08:10.475Z,540.00
2018-05-18T04:09:10.455Z,556.00
2018-05-18T04:10:10.440Z,576.00
2018-05-18T04:11:10.420Z,592.00
2018-05-18T04:12:10.401Z,608.00
2018-05-18T04:13:10.385Z,628.00
2018-05-18T04:14:10.370Z,648.00
2018-05-18T04:15:10.351Z,664.00
2018-05-18T04:16:10.334Z,696.00
2018-05-18T04:17:10.315Z,720.00
2018-05-18T04:18:10.299Z,756.00
2018-05-18T04:19:10.287Z,796.00
2018-05-18T04:20:10.272Z,832.00
2018-05-18T04:21:10.244Z,864.00
2018-05-18T04:22:10.226Z,900.00
2018-05-18T04:23:10.208Z,924.00
2018-05-18T04:24:10.191Z,952.00
2018-05-18T04:25:10.173Z,996.00
2018-05-18T04:26:10.154Z,1036.00
2018-05-18T04:27:10.136Z,1056.00
2018-05-18T04:28:10.119Z,1108.00
2018-05-18T04:29:10.102Z,1176.00
2018-05-18T04:30:10.130Z,1228.00
2018-05-18T04:31:10.066Z,1268.00
2018-05-18T04:32:10.049Z,1280.00
2018-05-18T04:33:10.029Z,1244.00
2018-05-18T04:34:10.013Z,1204.00
2018-05-18T04:35:10.016Z,1176.00
2018-05-18T04:36:09.976Z,1200.00
2018-05-18T04:37:09.959Z,1244.00
2018-05-18T04:38:09.941Z,1288.00
2018-05-18T04:39:09.925Z,1320.00
2018-05-18T04:40:09.917Z,1364.00
2018-05-18T04:41:09.893Z,1396.00
2018-05-18T04:42:09.872Z,1432.00
2018-05-18T04:43:09.858Z,1476.00
2018-05-18T04:44:09.836Z,1488.00
2018-05-18T04:45:09.823Z,1408.00
2018-05-18T04:46:09.801Z,1280.00
2018-05-18T04:47:09.783Z,1244.00
2018-05-18T04:48:09.765Z,1264.00
2018-05-18T04:49:09.748Z,1312.00
2018-05-18T04:50:09.733Z,1360.00
2018-05-18T04:51:09.711Z,1388.00
2018-05-18T04:52:09.706Z,1416.00
2018-05-18T04:53:09.678Z,1452.00
2018-05-18T04:54:09.661Z,1492.00
2018-05-18T04:55:09.641Z,1552.00
2018-05-18T04:56:09.635Z,1648.00
2018-05-18T04:57:09.616Z,1720.00
2018-05-18T04:58:09.590Z,1776.00
2018-05-18T04:59:09.572Z,1856.00
2018-05-18T05:00:09.555Z,1968.00
2018-05-18T05:01:09.541Z,2068.00
2018-05-18T05:02:09.519Z,2140.00
2018-05-18T05:03:09.504Z,2276.00
2018-05-18T05:04:09.485Z,2472.00
2018-05-18T05:05:09.467Z,2692.00
2018-05-18T05:06:09.457Z,2852.00
2018-05-18T05:07:09.433Z,2988.00
2018-05-18T05:08:09.414Z,3300.00
2018-05-18T05:09:09.405Z,3608.00
2018-05-18T05:10:09.398Z,3808.00
2018-05-18T05:11:09.363Z,3800.00
2018-05-18T05:12:09.346Z,3720.00
2018-05-18T05:13:09.333Z,3692.00
2018-05-18T05:14:09.319Z,3876.00
2018-05-18T05:15:09.293Z,4128.00
2018-05-18T05:16:09.288Z,4084.00
2018-05-18T05:17:09.259Z,3940.00
2018-05-18T05:18:09.243Z,3904.00
2018-05-18T05:19:09.232Z,4052.00
2018-05-18T05:20:09.224Z,4212.00
2018-05-18T05:21:09.191Z,4388.00
2018-05-18T05:22:09.174Z,4304.00
2018-05-18T05:23:09.156Z,4344.00
2018-05-18T05:24:09.148Z,4508.00
2018-05-18T05:25:09.129Z,4944.00
2018-05-18T05:26:09.110Z,4936.00
2018-05-18T05:27:09.089Z,4688.00
2018-05-18T05:28:09.071Z,4624.00
2018-05-18T05:29:09.055Z,4760.00
2018-05-18T05:30:09.047Z,5016.00
2018-05-18T05:31:09.018Z,5204.00
2018-05-18T05:32:09.002Z,5476.00
2018-05-18T05:33:08.990Z,5868.00
2018-05-18T05:34:08.971Z,6240.00
2018-05-18T05:35:08.951Z,6008.00
2018-05-18T05:36:08.940Z,5784.00
2018-05-18T05:37:08.917Z,5516.00
2018-05-18T05:38:08.901Z,5440.00
2018-05-18T05:39:08.883Z,5644.00
2018-05-18T05:40:08.866Z,5808.00
2018-05-18T05:41:08.866Z,6256.00
2018-05-18T05:42:08.833Z,6772.00
2018-05-18T05:43:08.816Z,6724.00
2018-05-18T05:44:08.805Z,6284.00
2018-05-18T05:45:08.795Z,6356.00
2018-05-18T05:46:08.773Z,6988.00
2018-05-18T05:47:08.752Z,7748.00
2018-05-18T05:48:08.736Z,8024.00
2018-05-18T05:49:08.714Z,7684.00
2018-05-18T05:50:08.700Z,7232.00
2018-05-18T05:51:08.687Z,7324.00
2018-05-18T05:52:08.664Z,8156.00
2018-05-18T05:53:08.648Z,8136.00
2018-05-18T05:54:08.633Z,9252.00
2018-05-18T05:55:08.616Z,10368.00
2018-05-18T05:56:08.597Z,11128.00
2018-05-18T05:57:08.584Z,10464.00
2018-05-18T05:58:08.566Z,9676.00
2018-05-18T05:59:08.554Z,9060.00
2018-05-18T06:00:08.540Z,9072.00
2018-05-18T06:01:08.516Z,9452.00
2018-05-18T06:02:08.502Z,8928.00
2018-05-18T06:03:08.484Z,8540.00
2018-05-18T06:04:08.471Z,9468.00
2018-05-18T06:05:08.460Z,8920.00
2018-05-18T06:06:08.436Z,9092.00
2018-05-18T06:07:08.418Z,8644.00
2018-05-18T06:08:08.406Z,8048.00
2018-05-18T06:09:08.399Z,8596.00
2018-05-18T06:10:08.372Z,9232.00
2018-05-18T06:11:08.354Z,9628.00
2018-05-18T06:12:08.424Z,10440.00
2018-05-18T06:13:08.331Z,11208.00
2018-05-18T06:14:08.309Z,12404.00
2018-05-18T06:15:08.299Z,14548.00
2018-05-18T06:16:08.291Z,16736.00
2018-05-18T06:17:08.269Z,15672.00
2018-05-18T06:18:08.245Z,15676.00
2018-05-18T06:19:08.227Z,19232.00
2018-05-18T06:20:08.223Z,18752.00
2018-05-18T06:21:08.198Z,16928.00
2018-05-18T06:22:08.189Z,18752.00
2018-05-18T06:23:08.169Z,16800.00
2018-05-18T06:24:08.153Z,16608.00
2018-05-18T06:25:08.139Z,13176.00
2018-05-18T06:26:08.132Z,13268.00
2018-05-18T06:27:08.116Z,10588.00
2018-05-18T06:28:08.090Z,9104.00
2018-05-18T06:29:08.078Z,8152.00
2018-05-18T06:30:08.061Z,8060.00
2018-05-18T06:31:08.046Z,8964.00
2018-05-18T06:32:08.034Z,9896.00
2018-05-18T06:33:08.015Z,11056.00
2018-05-18T06:34:08.009Z,11304.00
2018-05-18T06:35:08.137Z,12124.00
2018-05-18T06:36:07.980Z,13696.00
2018-05-18T06:37:07.958Z,15000.00
2018-05-18T06:38:07.951Z,15640.00
2018-05-18T06:39:07.933Z,15336.00
2018-05-18T06:40:07.930Z,15808.00
2018-05-18T06:41:07.901Z,36576.00
2018-05-18T06:42:07.892Z,15652.00
2018-05-18T06:43:07.870Z,13304.00
2018-05-18T06:44:07.852Z,15324.00
2018-05-18T06:45:07.841Z,11188.00
2018-05-18T06:46:07.835Z,10172.00
2018-05-18T06:47:07.808Z,9800.00
2018-05-18T06:48:07.801Z,9932.00
2018-05-18T06:49:07.781Z,10296.00
2018-05-18T06:50:07.774Z,10380.00
2018-05-18T06:51:07.750Z,10316.00
2018-05-18T06:52:07.735Z,10388.00
2018-05-18T06:53:07.733Z,10276.00
2018-05-18T06:54:07.705Z,10204.00
2018-05-18T06:55:07.689Z,10516.00
2018-05-18T06:56:07.683Z,10844.00
2018-05-18T06:57:07.680Z,11712.00
2018-05-18T06:58:07.643Z,13224.00
2018-05-18T06:59:07.640Z,14704.00
2018-05-18T07:00:07.627Z,17216.00
2018-05-18T07:01:07.601Z,20064.00
2018-05-18T07:02:07.589Z,22624.00
2018-05-18T07:03:07.580Z,33568.00
2018-05-18T07:04:07.591Z,25664.00
2018-05-18T07:05:07.543Z,22464.00
2018-05-18T07:06:07.529Z,20512.00
2018-05-18T07:07:07.518Z,20128.00
2018-05-18T07:08:07.500Z,18752.00
2018-05-18T07:09:07.485Z,17760.00
2018-05-18T07:10:07.472Z,17120.00
2018-05-18T07:11:07.458Z,15936.00
2018-05-18T07:12:07.444Z,15856.00
2018-05-18T07:13:07.437Z,15564.00
2018-05-18T07:14:07.417Z,14780.00
2018-05-18T07:15:07.413Z,14304.00
2018-05-18T07:16:07.401Z,14024.00
2018-05-18T07:17:07.375Z,13836.00
2018-05-18T07:18:07.378Z,14020.00
2018-05-18T07:19:07.347Z,14544.00
2018-05-18T07:20:07.338Z,14620.00
2018-05-18T07:21:07.321Z,14172.00
2018-05-18T07:22:07.311Z,13524.00
2018-05-18T07:23:07.329Z,13664.00
2018-05-18T07:24:07.379Z,18688.00
2018-05-18T07:25:07.272Z,18912.00
2018-05-18T07:26:07.257Z,20352.00
2018-05-18T07:27:07.236Z,23232.00
2018-05-18T07:28:07.223Z,22656.00
2018-05-18T07:29:07.210Z,20416.00
2018-05-18T07:30:07.231Z,18464.00
2018-05-18T07:31:07.181Z,18656.00
2018-05-18T07:32:07.172Z,18208.00
2018-05-18T07:33:07.168Z,17120.00
2018-05-18T07:34:07.141Z,13792.00
2018-05-18T07:35:07.126Z,12828.00
2018-05-18T07:36:07.163Z,12292.00
2018-05-18T07:37:07.101Z,12440.00
2018-05-18T07:38:07.094Z,12904.00
2018-05-18T07:39:07.082Z,13872.00
2018-05-18T07:40:07.073Z,15672.00
2018-05-18T07:41:07.048Z,17728.00
2018-05-18T07:42:07.035Z,20352.00
2018-05-18T07:43:07.026Z,21536.00
2018-05-18T07:44:07.006Z,20704.00
2018-05-18T07:45:09.613Z,18592.00
2018-05-18T07:46:06.987Z,16928.00
2018-05-18T07:47:06.966Z,15604.00
2018-05-18T07:48:06.953Z,14992.00
2018-05-18T07:49:06.941Z,15216.00
2018-05-18T07:50:06.996Z,15224.00
2018-05-18T07:51:07.720Z,15144.00
2018-05-18T07:52:06.903Z,16960.00
2018-05-18T07:53:06.886Z,18912.00
2018-05-18T07:54:06.872Z,19360.00
2018-05-18T07:55:06.862Z,19008.00
2018-05-18T07:56:06.845Z,17056.00
2018-05-18T07:57:06.832Z,15856.00
2018-05-18T07:58:06.824Z,16228.00
2018-05-18T07:59:06.806Z,16512.00
2018-05-18T08:00:06.793Z,16832.00
2018-05-18T08:01:06.793Z,17408.00
2018-05-18T08:02:06.765Z,18592.00
2018-05-18T08:03:06.754Z,19648.00
2018-05-18T08:04:06.747Z,21600.00
2018-05-18T08:05:06.751Z,22592.00
2018-05-18T08:06:06.713Z,22592.00
2018-05-18T08:07:06.703Z,21888.00
2018-05-18T08:08:06.685Z,21184.00
2018-05-18T08:09:06.672Z,21056.00
2018-05-18T08:10:06.659Z,21376.00
2018-05-18T08:11:06.658Z,21152.00
2018-05-18T08:12:06.691Z,21184.00
2018-05-18T08:13:06.618Z,21024.00
2018-05-18T08:14:06.607Z,20672.00
2018-05-18T08:15:06.614Z,20960.00
2018-05-18T08:16:06.597Z,20768.00
2018-05-18T08:17:06.569Z,20608.00
2018-05-18T08:18:06.554Z,18688.00
2018-05-18T08:19:06.546Z,18240.00
2018-05-18T08:20:06.528Z,20992.00
2018-05-18T08:21:06.522Z,24160.00
2018-05-18T08:22:06.502Z,25536.00
2018-05-18T08:23:06.496Z,25344.00
2018-05-18T08:24:06.476Z,24352.00
2018-05-18T08:25:06.462Z,23904.00
2018-05-18T08:26:06.452Z,24640.00
2018-05-18T08:27:06.491Z,24672.00
2018-05-18T08:28:06.424Z,22976.00
2018-05-18T08:29:06.423Z,20608.00
2018-05-18T08:30:06.400Z,18304.00
2018-05-18T08:31:06.388Z,16188.00
2018-05-18T08:32:06.374Z,16492.00
2018-05-18T08:33:06.370Z,16180.00
2018-05-18T08:34:06.350Z,15864.00
2018-05-18T08:35:06.346Z,16424.00
2018-05-18T08:36:06.326Z,24256.00
2018-05-18T08:37:06.321Z,21728.00
2018-05-18T08:38:06.308Z,28768.00
2018-05-18T08:39:06.295Z,23968.00
2018-05-18T08:40:06.277Z,27648.00
2018-05-18T08:41:06.263Z,25536.00
2018-05-18T08:42:06.250Z,30400.00
2018-05-18T08:43:06.243Z,26880.00
2018-05-18T08:44:06.226Z,24640.00
2018-05-18T08:45:06.214Z,25984.00
2018-05-18T08:46:06.202Z,27712.00
2018-05-18T08:47:06.221Z,29536.00
2018-05-18T08:48:06.180Z,30464.00
2018-05-18T08:49:06.168Z,29056.00
2018-05-18T08:50:06.224Z,27200.00
2018-05-18T08:51:06.157Z,29312.00
2018-05-18T08:52:06.186Z,26880.00
2018-05-18T08:53:06.126Z,26144.00
2018-05-18T08:54:06.121Z,25600.00
2018-05-18T08:55:06.095Z,25216.00
2018-05-18T08:56:06.084Z,25600.00
2018-05-18T08:57:06.096Z,26208.00
2018-05-18T08:58:06.072Z,26496.00
2018-05-18T08:59:06.049Z,26528.00
2018-05-18T09:00:06.037Z,26912.00
2018-05-18T09:01:06.036Z,25760.00
2018-05-18T09:02:06.017Z,24320.00
2018-05-18T09:03:06.007Z,24224.00
2018-05-18T09:04:05.992Z,26304.00
2018-05-18T09:05:05.997Z,27840.00
2018-05-18T09:06:05.971Z,26784.00
2018-05-18T09:07:05.967Z,26848.00
2018-05-18T09:08:05.953Z,27328.00
2018-05-18T09:09:05.937Z,27712.00
2018-05-18T09:10:05.926Z,26944.00
2018-05-18T09:11:05.913Z,22336.00
2018-05-18T09:12:05.910Z,21728.00
2018-05-18T09:13:05.912Z,21888.00
2018-05-18T09:14:05.881Z,21376.00
2018-05-18T09:15:05.868Z,19648.00
2018-05-18T09:16:05.858Z,19328.00
2018-05-18T09:17:05.849Z,20416.00
2018-05-18T09:18:05.838Z,22336.00
2018-05-18T09:19:05.834Z,27168.00
2018-05-18T09:20:05.817Z,30976.00
2018-05-18T09:21:05.801Z,56224.00
2018-05-18T09:22:05.798Z,29760.00
2018-05-18T09:23:05.783Z,27488.00
2018-05-18T09:24:05.779Z,25728.00
2018-05-18T09:25:05.763Z,24384.00
2018-05-18T09:26:05.757Z,24896.00
2018-05-18T09:27:05.886Z,27808.00
2018-05-18T09:28:05.725Z,30080.00
2018-05-18T09:29:05.716Z,30560.00
2018-05-18T09:30:05.708Z,29504.00
2018-05-18T09:31:05.695Z,28768.00
2018-05-18T09:32:05.695Z,29408.00
2018-05-18T09:33:05.674Z,30912.00
2018-05-18T09:34:05.673Z,30752.00
2018-05-18T09:35:05.652Z,89184.00
2018-05-18T09:36:05.644Z,65504.00
2018-05-18T09:37:05.632Z,27008.00
2018-05-18T09:38:05.631Z,23744.00
2018-05-18T09:39:05.616Z,31648.00
2018-05-18T09:40:05.602Z,25856.00
2018-05-18T09:41:05.605Z,32032.00
2018-05-18T09:42:05.591Z,41376.00
2018-05-18T09:43:05.573Z,75168.00
2018-05-18T09:44:05.561Z,31520.00
2018-05-18T09:45:05.635Z,34400.00
2018-05-18T09:46:05.560Z,32512.00
2018-05-18T09:47:05.549Z,33376.00
2018-05-18T09:48:05.524Z,50912.00
2018-05-18T09:49:05.534Z,27168.00
2018-05-18T09:50:05.509Z,26144.00
2018-05-18T09:51:05.499Z,23360.00
2018-05-18T09:52:05.504Z,42688.00
2018-05-18T09:53:05.486Z,20640.00
2018-05-18T09:54:05.482Z,29216.00
2018-05-18T09:55:05.693Z,26336.00
2018-05-18T09:56:05.456Z,32512.00
2018-05-18T09:57:05.446Z,62624.00
2018-05-18T09:58:05.437Z,40096.00
2018-05-18T09:59:05.431Z,92448.00
2018-05-18T10:00:05.418Z,40256.00
2018-05-18T10:01:05.412Z,35136.00
2018-05-18T10:02:05.406Z,35904.00
2018-05-18T10:03:05.398Z,37856.00
2018-05-18T10:04:05.389Z,123360.00
2018-05-18T10:05:05.401Z,118112.00
2018-05-18T10:06:05.371Z,100128.00
2018-05-18T10:07:05.415Z,72960.00
2018-05-18T10:08:05.357Z,52736.00
2018-05-18T10:09:05.353Z,84352.00
2018-05-18T10:10:05.346Z,96928.00
2018-05-18T10:11:05.355Z,43584.00
2018-05-18T10:12:05.334Z,54336.00
2018-05-18T10:13:05.342Z,124032.00
2018-05-18T10:14:05.324Z,107104.00
2018-05-18T10:15:05.317Z,126944.00
2018-05-18T10:16:05.313Z,85824.00
2018-05-18T10:17:05.310Z,42368.00
2018-05-18T10:18:05.311Z,111744.00
2018-05-18T10:19:05.316Z,119552.00
2018-05-18T10:20:05.298Z,114304.00
2018-05-18T10:21:05.296Z,98208.00
2018-05-18T10:22:05.299Z,111648.00
2018-05-18T10:23:05.289Z,108896.00
2018-05-18T10:24:05.289Z,93312.00
2018-05-18T10:25:05.287Z,77536.00
2018-05-18T10:26:05.294Z,73600.00
2018-05-18T10:27:05.347Z,81792.00
2018-05-18T10:28:05.296Z,85792.00
2018-05-18T10:29:05.287Z,83712.00
2018-05-18T10:30:05.280Z,87968.00
2018-05-18T10:31:05.286Z,57536.00
2018-05-18T10:32:05.276Z,88000.00
2018-05-18T10:33:05.279Z,26880.00
2018-05-18T10:34:05.279Z,34752.00
2018-05-18T10:35:05.278Z,36896.00
2018-05-18T10:36:05.276Z,64512.00
2018-05-18T10:37:05.280Z,113120.00
2018-05-18T10:38:05.275Z,109152.00
2018-05-18T10:39:05.274Z,24192.00
2018-05-18T10:40:05.279Z,25408.00
2018-05-18T10:41:05.271Z,25024.00
2018-05-18T10:42:05.270Z,27520.00
2018-05-18T10:43:05.269Z,41856.00
2018-05-18T10:44:05.265Z,86400.00
2018-05-18T10:45:05.264Z,54336.00
2018-05-18T10:46:05.262Z,115872.00
2018-05-18T10:47:05.264Z,42848.00
2018-05-18T10:48:05.259Z,34528.00
2018-05-18T10:49:05.263Z,31456.00
2018-05-18T10:50:05.256Z,35168.00
2018-05-18T10:51:05.247Z,103680.00
2018-05-18T10:52:05.246Z,110496.00
2018-05-18T10:53:05.289Z,25248.00
2018-05-18T10:54:05.246Z,25248.00
2018-05-18T10:55:05.237Z,39648.00
2018-05-18T10:56:05.236Z,54432.00
2018-05-18T10:57:05.233Z,94944.00
2018-05-18T10:58:05.226Z,87200.00
2018-05-18T10:59:05.225Z,27936.00
2018-05-18T11:00:05.214Z,107072.00
2018-05-18T11:01:05.211Z,100864.00
2018-05-18T11:02:05.212Z,98944.00
2018-05-18T11:03:05.205Z,98816.00
2018-05-18T11:04:05.199Z,98560.00
2018-05-18T11:05:05.197Z,104192.00
2018-05-18T11:06:05.196Z,73632.00
2018-05-18T11:07:05.190Z,29024.00
2018-05-18T11:08:05.198Z,51552.00
2018-05-18T11:09:05.190Z,30304.00
2018-05-18T11:10:05.187Z,35200.00
2018-05-18T11:11:05.183Z,58752.00
2018-05-18T11:12:05.186Z,98176.00
2018-05-18T11:13:05.181Z,95584.00
2018-05-18T11:14:05.258Z,99072.00
2018-05-18T11:15:05.182Z,101600.00
2018-05-18T11:16:05.177Z,102432.00
2018-05-18T11:17:05.183Z,99328.00
2018-05-18T11:18:05.177Z,97504.00
2018-05-18T11:19:05.174Z,76640.00
2018-05-18T11:20:05.214Z,26848.00
2018-05-18T11:21:05.188Z,53952.00
2018-05-18T11:22:05.172Z,98048.00
2018-05-18T11:23:05.172Z,61696.00
2018-05-18T11:24:05.176Z,46400.00
2018-05-18T11:25:05.173Z,33696.00
2018-05-18T11:26:05.173Z,81280.00
2018-05-18T11:27:05.180Z,74784.00
2018-05-18T11:28:05.177Z,36256.00
2018-05-18T11:29:05.175Z,22880.00
2018-05-18T11:30:05.168Z,21440.00
2018-05-18T11:31:05.182Z,27584.00
2018-05-18T11:32:05.166Z,79232.00
2018-05-18T11:33:05.280Z,92064.00
2018-05-18T11:34:05.166Z,93376.00
2018-05-18T11:35:05.160Z,97152.00
2018-05-18T11:36:05.159Z,96512.00
2018-05-18T11:37:05.155Z,91488.00
2018-05-18T11:38:05.161Z,77792.00
2018-05-18T11:39:05.200Z,89312.00
2018-05-18T11:40:05.147Z,61568.00
2018-05-18T11:41:05.155Z,47648.00
2018-05-18T11:42:05.152Z,89920.00
2018-05-18T11:43:05.145Z,90944.00
2018-05-18T11:44:05.142Z,60320.00
2018-05-18T11:45:05.137Z,25312.00
2018-05-18T11:46:05.136Z,22528.00
2018-05-18T11:47:05.133Z,26048.00
2018-05-18T11:48:05.174Z,20224.00
2018-05-18T11:49:05.127Z,19552.00
2018-05-18T11:50:05.136Z,17728.00
2018-05-18T11:51:05.118Z,17856.00
2018-05-18T11:52:05.117Z,19776.00
2018-05-18T11:53:05.108Z,19296.00
2018-05-18T11:54:05.105Z,17184.00
2018-05-18T11:55:05.098Z,13236.00
2018-05-18T11:56:05.099Z,12608.00
2018-05-18T11:57:05.092Z,12092.00
2018-05-18T11:58:05.084Z,13236.00
2018-05-18T11:59:05.077Z,13960.00
2018-05-18T12:00:05.075Z,12000.00
2018-05-18T12:01:05.064Z,12348.00
2018-05-18T12:02:05.073Z,12192.00
2018-05-18T12:03:05.054Z,12320.00
2018-05-18T12:04:05.040Z,12520.00
2018-05-18T12:05:05.033Z,14356.00
2018-05-18T12:06:05.030Z,17120.00
2018-05-18T12:07:05.017Z,18080.00
2018-05-18T12:08:05.020Z,17856.00
2018-05-18T12:09:05.009Z,16340.00
2018-05-18T12:10:04.992Z,15208.00